Time;durP1;ratioP1;P1;durP2;ratioP2;P2;SDS_P1;SDS_P2;PMS_P1;PMS_P2;Temp;Humidity;BMP_temperature;BMP_pressure;BME280_temperature;BME280_humidity;BME280_pressure;Samples;Min_cycle;Max_cycle;Signal;HPM_P1;HPM_P2
2022/01/19 00:00:36;;;;;;;17.97;9.97;;;;;;;;;;5014000;28;20179;-63
2022/01/19 00:03:03;;;;;;;13.23;8.97;;;;;;;;;;5015551;28;20743;-64
2022/01/19 00:05:28;;;;;;;16.63;9.37;;;;;;;;;;5013811;28;20180;-65
2022/01/19 00:07:54;;;;;;;18.97;11.20;;;;;;;;;;5015183;28;20663;-65
2022/01/19 00:10:27;;;;;;;16.53;9.40;;;;;;;;;;5013599;28;20218;-63
2022/01/19 00:12:54;;;;;;;20.10;10.67;;;;;;;;;;5015066;28;20203;-64
2022/01/19 00:15:20;;;;;;;14.23;9.77;;;;;;;;;;5014744;28;20175;-65
2022/01/19 00:17:46;;;;;;;15.60;9.50;;;;;;;;;;5015127;28;20172;-65
2022/01/19 00:20:12;;;;;;;15.73;9.77;;;;;;;;;;5013866;28;20180;-64
2022/01/19 00:22:38;;;;;;;12.33;8.97;;;;;;;;;;5015583;28;20188;-66
2022/01/19 00:25:05;;;;;;;11.60;7.93;;;;;;;;;;5015433;28;20229;-65
2022/01/19 00:27:31;;;;;;;11.70;8.80;;;;;;;;;;5014123;28;20204;-64
2022/01/19 00:29:57;;;;;;;16.83;8.80;;;;;;;;;;5015030;28;20234;-64
2022/01/19 00:32:25;;;;;;;15.17;9.23;;;;;;;;;;5014921;28;20572;-64
2022/01/19 00:34:52;;;;;;;13.33;8.70;;;;;;;;;;5015296;28;20620;-64
2022/01/19 00:37:18;;;;;;;11.60;8.27;;;;;;;;;;5014872;28;20418;-65
2022/01/19 00:39:44;;;;;;;14.87;8.27;;;;;;;;;;5013473;28;20710;-63
2022/01/19 00:42:10;;;;;;;10.60;8.13;;;;;;;;;;5015185;28;20399;-64
2022/01/19 00:44:38;;;;;;;12.10;7.70;;;;;;;;;;5015334;28;20715;-64
2022/01/19 00:47:04;;;;;;;12.97;7.63;;;;;;;;;;5013574;28;20223;-63
2022/01/19 00:49:30;;;;;;;12.73;7.77;;;;;;;;;;5014760;28;20550;-63
2022/01/19 00:51:56;;;;;;;11.17;7.83;;;;;;;;;;5014976;28;20184;-64
2022/01/19 00:54:22;;;;;;;14.40;8.60;;;;;;;;;;5014907;28;20208;-65
2022/01/19 00:56:48;;;;;;;13.17;8.60;;;;;;;;;;5015150;28;20215;-64
2022/01/19 00:59:14;;;;;;;14.07;8.67;;;;;;;;;;5015132;28;20186;-65
2022/01/19 01:01:40;;;;;;;14.70;8.80;;;;;;;;;;5014956;28;20660;-64
2022/01/19 01:04:06;;;;;;;14.20;8.40;;;;;;;;;;5014902;28;20239;-64
2022/01/19 01:06:32;;;;;;;14.27;9.10;;;;;;;;;;5014878;28;20206;-64
2022/01/19 01:08:58;;;;;;;12.27;8.27;;;;;;;;;;5015190;28;20176;-64
2022/01/19 01:11:29;;;;;;;12.87;8.87;;;;;;;;;;5016842;28;20230;-64
2022/01/19 01:16:40;;;;;;;11.20;8.47;;;;;;;;;;5018468;28;20426;-64
2022/01/19 01:19:08;;;;;;;11.07;8.70;;;;;;;;;;5017364;28;20632;-63
2022/01/19 01:21:34;;;;;;;14.67;9.13;;;;;;;;;;5018634;28;20180;-64
2022/01/19 01:24:00;;;;;;;12.27;9.53;;;;;;;;;;5016687;28;20184;-64
2022/01/19 01:26:26;;;;;;;14.07;9.90;;;;;;;;;;5018170;28;20204;-64
2022/01/19 01:28:52;;;;;;;15.27;10.33;;;;;;;;;;5017879;28;20188;-64
2022/01/19 01:31:18;;;;;;;14.33;9.90;;;;;;;;;;5018219;28;20418;-65
2022/01/19 01:33:45;;;;;;;16.67;10.03;;;;;;;;;;5017919;28;20582;-64
2022/01/19 01:36:11;;;;;;;14.93;9.80;;;;;;;;;;5016516;28;20254;-64
2022/01/19 01:38:37;;;;;;;12.37;9.33;;;;;;;;;;5016802;28;20458;-65
2022/01/19 01:41:04;;;;;;;16.07;10.60;;;;;;;;;;5017899;28;20264;-64
2022/01/19 01:43:30;;;;;;;14.80;10.40;;;;;;;;;;5017903;28;20485;-64
2022/01/19 01:46:03;;;;;;;15.77;10.60;;;;;;;;;;5017647;28;20199;-65
2022/01/19 01:48:29;;;;;;;18.80;10.87;;;;;;;;;;5017891;28;20759;-64
2022/01/19 01:53:40;;;;;;;16.20;10.53;;;;;;;;;;5017810;28;20505;-65
2022/01/19 01:56:10;;;;;;;15.57;10.00;;;;;;;;;;5017405;28;20207;-64
2022/01/19 01:58:38;;;;;;;11.90;10.50;;;;;;;;;;5017587;28;20502;-64
2022/01/19 02:01:05;;;;;;;17.13;11.37;;;;;;;;;;5017306;28;20450;-63
2022/01/19 02:03:37;;;;;;;14.43;10.70;;;;;;;;;;5017247;28;20411;-64
2022/01/19 02:06:27;;;;;;;16.53;11.87;;;;;;;;;;5015505;28;20491;-63
2022/01/19 02:09:01;;;;;;;20.30;12.80;;;;;;;;;;5015523;28;20501;-64
2022/01/19 02:15:47;;;;;;;19.07;12.90;;;;;;;;;;5016862;28;20505;-64
2022/01/19 02:22:56;;;;;;;18.43;12.47;;;;;;;;;;5016897;28;20422;-66
2022/01/19 02:25:27;;;;;;;17.73;13.37;;;;;;;;;;5017250;28;20998;-64
2022/01/19 02:41:18;;;;;;;19.37;14.33;;;;;;;;;;5017066;28;20445;-64
2022/01/19 02:43:49;;;;;;;19.90;13.63;;;;;;;;;;5017199;28;20415;-64
2022/01/19 02:49:17;;;;;;;20.50;13.43;;;;;;;;;;4975465;28;20195;-64
2022/01/19 02:51:44;;;;;;;16.33;12.50;;;;;;;;;;5008349;28;20915;-64
2022/01/19 02:54:14;;;;;;;17.03;11.43;;;;;;;;;;5016802;28;20488;-63
2022/01/19 02:56:43;;;;;;;19.77;11.97;;;;;;;;;;5015133;28;20212;-65
2022/01/19 02:59:16;;;;;;;18.07;12.20;;;;;;;;;;5016589;28;20415;-64
2022/01/19 03:09:44;;;;;;;14.13;10.20;;;;;;;;;;5016769;28;20179;-63
2022/01/19 03:12:10;;;;;;;16.47;9.93;;;;;;;;;;5015339;28;20279;-63
2022/01/19 03:14:36;;;;;;;10.43;9.10;;;;;;;;;;5016203;28;20183;-64
2022/01/19 03:17:02;;;;;;;13.93;9.70;;;;;;;;;;5016029;28;20249;-64
2022/01/19 03:19:30;;;;;;;12.60;9.53;;;;;;;;;;5015695;28;20175;-64
2022/01/19 03:21:56;;;;;;;10.50;9.20;;;;;;;;;;5015325;28;20179;-63
2022/01/19 03:24:22;;;;;;;10.13;8.93;;;;;;;;;;5015020;28;20183;-63
2022/01/19 03:26:48;;;;;;;11.30;9.07;;;;;;;;;;5016198;28;20196;-64
2022/01/19 03:29:14;;;;;;;12.77;9.37;;;;;;;;;;5016717;28;20187;-64
2022/01/19 03:31:40;;;;;;;12.43;8.93;;;;;;;;;;5014923;28;20188;-65
2022/01/19 03:34:06;;;;;;;11.97;10.30;;;;;;;;;;5015931;28;20203;-63
2022/01/19 03:36:33;;;;;;;12.10;9.97;;;;;;;;;;5016472;28;20195;-64
2022/01/19 03:38:59;;;;;;;14.10;10.43;;;;;;;;;;5016199;28;20179;-64
2022/01/19 03:41:25;;;;;;;15.40;11.40;;;;;;;;;;5042898;23;20246;-62
2022/01/19 03:43:51;;;;;;;15.33;11.97;;;;;;;;;;5057985;28;20160;-62
2022/01/19 03:46:17;;;;;;;17.67;12.50;;;;;;;;;;5056844;28;20187;-61
2022/01/19 03:48:52;;;;;;;13.23;11.37;;;;;;;;;;5055029;28;20175;-62
2022/01/19 03:51:18;;;;;;;13.53;11.13;;;;;;;;;;5071343;28;20217;-61
2022/01/19 03:53:44;;;;;;;14.10;11.60;;;;;;;;;;5056705;28;20195;-61
2022/01/19 03:56:10;;;;;;;15.50;11.93;;;;;;;;;;5071923;28;20189;-61
2022/01/19 03:58:36;;;;;;;14.17;12.60;;;;;;;;;;5054871;28;20179;-63
2022/01/19 04:01:03;;;;;;;13.33;11.93;;;;;;;;;;5054984;28;20222;-60
2022/01/19 04:06:24;;;;;;;16.47;13.03;;;;;;;;;;5044574;28;20183;-61
2022/01/19 04:08:50;;;;;;;15.53;13.20;;;;;;;;;;5055134;28;20163;-62
2022/01/19 04:11:18;;;;;;;14.83;13.33;;;;;;;;;;5070292;28;20217;-62
2022/01/19 04:13:58;;;;;;;17.27;13.50;;;;;;;;;;5070089;28;20203;-63
2022/01/19 04:16:24;;;;;;;16.30;12.60;;;;;;;;;;5053479;28;20194;-61
2022/01/19 04:18:56;;;;;;;17.93;14.10;;;;;;;;;;5052510;28;20206;-61
2022/01/19 04:21:22;;;;;;;16.77;13.90;;;;;;;;;;5065819;28;20195;-61
2022/01/19 04:23:49;;;;;;;17.23;14.37;;;;;;;;;;5052151;28;20210;-61
2022/01/19 04:26:15;;;;;;;19.97;15.00;;;;;;;;;;5068078;28;20179;-62
2022/01/19 04:28:40;;;;;;;22.17;16.17;;;;;;;;;;5051968;28;20170;-61
2022/01/19 04:31:06;;;;;;;25.33;16.37;;;;;;;;;;5065434;28;20600;-61
2022/01/19 04:33:32;;;;;;;21.27;14.90;;;;;;;;;;5068256;28;20206;-62
2022/01/19 04:36:19;;;;;;;26.40;17.60;;;;;;;;;;5051110;28;20166;-61
2022/01/19 05:02:56;;;;;;;25.37;17.10;;;;;;;;;;5048820;28;20198;-61
2022/01/19 05:05:25;;;;;;;23.77;14.53;;;;;;;;;;5042375;28;20198;-62
2022/01/19 05:15:37;;;;;;;25.17;16.30;;;;;;;;;;5051723;28;20198;-63
2022/01/19 05:18:04;;;;;;;28.50;18.90;;;;;;;;;;5068777;28;20202;-61
2022/01/19 05:20:30;;;;;;;21.57;16.90;;;;;;;;;;5068834;28;20179;-63
2022/01/19 05:22:56;;;;;;;26.53;16.87;;;;;;;;;;5068116;28;20218;-63
2022/01/19 05:25:22;;;;;;;23.00;17.53;;;;;;;;;;5052431;28;20186;-62
2022/01/19 05:27:48;;;;;;;26.73;18.93;;;;;;;;;;5051891;28;20175;-61
2022/01/19 05:30:14;;;;;;;25.53;16.27;;;;;;;;;;5050716;28;20183;-62
2022/01/19 05:32:40;;;;;;;25.60;17.20;;;;;;;;;;5051404;28;20663;-61
2022/01/19 05:35:06;;;;;;;26.83;17.13;;;;;;;;;;5049892;28;20422;-61
2022/01/19 05:37:36;;;;;;;25.43;17.97;;;;;;;;;;5049785;28;20417;-61
2022/01/19 05:40:04;;;;;;;25.40;17.90;;;;;;;;;;5050161;28;20646;-61
2022/01/19 05:42:30;;;;;;;24.37;16.70;;;;;;;;;;5050644;28;20266;-63
2022/01/19 05:44:56;;;;;;;27.43;18.73;;;;;;;;;;5049359;28;20414;-61
2022/01/19 05:47:21;;;;;;;22.60;15.13;;;;;;;;;;5065584;28;20214;-62
2022/01/19 05:49:47;;;;;;;21.83;16.50;;;;;;;;;;5049325;28;20201;-61
2022/01/19 05:52:14;;;;;;;23.40;16.13;;;;;;;;;;5060685;28;20196;-63
2022/01/19 05:54:39;;;;;;;21.00;15.17;;;;;;;;;;5044276;28;20181;-63
2022/01/19 05:57:05;;;;;;;19.97;13.60;;;;;;;;;;5043775;28;20604;-61
2022/01/19 05:59:31;;;;;;;19.60;13.13;;;;;;;;;;5054132;28;20202;-62
2022/01/19 06:01:58;;;;;;;18.23;12.77;;;;;;;;;;5053995;28;20202;-61
2022/01/19 06:04:25;;;;;;;18.70;12.07;;;;;;;;;;5067568;28;20652;-61
2022/01/19 06:06:54;;;;;;;17.27;12.20;;;;;;;;;;5053418;28;20406;-61
2022/01/19 06:09:33;;;;;;;15.93;11.93;;;;;;;;;;5054449;28;20175;-62
2022/01/19 06:11:59;;;;;;;18.13;13.00;;;;;;;;;;5052707;28;20198;-62
2022/01/19 06:14:24;;;;;;;15.93;11.90;;;;;;;;;;5037806;28;20203;-61
2022/01/19 06:16:50;;;;;;;20.07;12.57;;;;;;;;;;5038734;28;20179;-61
2022/01/19 06:19:19;;;;;;;16.40;12.43;;;;;;;;;;5053362;28;20183;-61
2022/01/19 06:21:45;;;;;;;17.17;12.77;;;;;;;;;;5038272;28;20199;-61
2022/01/19 06:24:11;;;;;;;21.87;14.00;;;;;;;;;;5038482;28;20229;-61
2022/01/19 06:26:38;;;;;;;19.83;13.57;;;;;;;;;;5054293;28;20187;-61
2022/01/19 06:29:04;;;;;;;21.20;14.00;;;;;;;;;;5038524;28;20206;-61
2022/01/19 06:31:30;;;;;;;18.30;13.57;;;;;;;;;;5039593;28;20234;-61
2022/01/19 06:33:57;;;;;;;15.97;13.17;;;;;;;;;;5038295;28;20278;-61
2022/01/19 06:36:23;;;;;;;17.63;13.90;;;;;;;;;;5053261;28;20179;-60
2022/01/19 06:38:49;;;;;;;20.93;14.10;;;;;;;;;;5038662;28;20187;-61
2022/01/19 06:41:14;;;;;;;17.10;13.23;;;;;;;;;;5038572;28;20215;-61
2022/01/19 06:43:40;;;;;;;18.73;14.00;;;;;;;;;;5053230;28;20535;-61
2022/01/19 06:46:06;;;;;;;17.37;13.40;;;;;;;;;;5053478;28;20175;-61
2022/01/19 06:48:32;;;;;;;18.13;14.43;;;;;;;;;;5053989;28;20189;-62
2022/01/19 06:50:58;;;;;;;20.60;14.27;;;;;;;;;;5054905;28;20209;-61
2022/01/19 06:53:24;;;;;;;23.17;14.83;;;;;;;;;;5054563;28;20578;-62
2022/01/19 06:55:50;;;;;;;20.40;14.83;;;;;;;;;;5054248;28;20189;-61
2022/01/19 06:58:16;;;;;;;20.47;15.17;;;;;;;;;;5037792;28;20179;-62
2022/01/19 07:00:42;;;;;;;21.80;14.70;;;;;;;;;;5037391;28;20182;-61
2022/01/19 07:03:09;;;;;;;19.23;15.33;;;;;;;;;;5053132;28;20183;-61
2022/01/19 07:05:35;;;;;;;21.47;16.53;;;;;;;;;;5037332;28;20550;-61
2022/01/19 07:08:01;;;;;;;20.87;14.80;;;;;;;;;;5036992;28;20211;-61
2022/01/19 07:10:31;;;;;;;20.50;15.93;;;;;;;;;;5053529;28;20183;-61
2022/01/19 07:12:57;;;;;;;30.13;20.10;;;;;;;;;;5052673;28;20217;-61
2022/01/19 07:15:23;;;;;;;38.97;29.90;;;;;;;;;;5036567;28;20186;-61
2022/01/19 07:17:49;;;;;;;37.30;27.03;;;;;;;;;;5052485;28;20205;-62
2022/01/19 07:20:15;;;;;;;38.37;25.13;;;;;;;;;;5052621;28;20662;-61
2022/01/19 07:22:41;;;;;;;49.67;34.70;;;;;;;;;;5036912;28;20274;-61
2022/01/19 07:25:07;;;;;;;27.50;20.40;;;;;;;;;;5037112;28;20250;-62
2022/01/19 07:27:33;;;;;;;36.63;25.73;;;;;;;;;;5036703;28;20250;-62
2022/01/19 07:29:59;;;;;;;23.83;17.47;;;;;;;;;;5036744;28;20635;-63
2022/01/19 07:32:30;;;;;;;30.80;22.07;;;;;;;;;;5051755;28;20195;-61
2022/01/19 07:34:55;;;;;;;28.63;21.07;;;;;;;;;;5052193;28;20600;-60
2022/01/19 07:37:22;;;;;;;28.00;21.03;;;;;;;;;;5037707;28;20179;-61
2022/01/19 07:39:48;;;;;;;28.03;19.57;;;;;;;;;;5036325;28;20186;-61
2022/01/19 07:42:14;;;;;;;28.80;19.47;;;;;;;;;;5035940;28;20217;-61
2022/01/19 07:44:40;;;;;;;32.47;23.77;;;;;;;;;;5050916;28;20582;-61
2022/01/19 07:47:07;;;;;;;32.37;24.30;;;;;;;;;;5051171;28;20197;-61
2022/01/19 07:49:33;;;;;;;25.63;18.60;;;;;;;;;;5036710;28;20187;-61
2022/01/19 07:51:59;;;;;;;24.90;19.90;;;;;;;;;;5051508;28;20203;-61
2022/01/19 07:54:25;;;;;;;24.47;18.93;;;;;;;;;;5051272;28;20290;-61
2022/01/19 07:56:51;;;;;;;25.53;19.60;;;;;;;;;;5036254;28;20194;-61
2022/01/19 07:59:17;;;;;;;23.07;19.03;;;;;;;;;;5036412;28;20639;-61
2022/01/19 08:01:43;;;;;;;23.87;18.37;;;;;;;;;;5051802;28;20199;-61
2022/01/19 08:04:10;;;;;;;23.93;18.37;;;;;;;;;;5053265;28;20201;-61
2022/01/19 08:06:36;;;;;;;20.00;15.63;;;;;;;;;;5053871;28;20190;-61
2022/01/19 08:09:03;;;;;;;21.30;17.20;;;;;;;;;;5053491;28;20179;-61
2022/01/19 08:11:29;;;;;;;21.13;18.03;;;;;;;;;;5042440;28;20203;-61
2022/01/19 08:13:55;;;;;;;22.03;17.37;;;;;;;;;;5057654;28;20223;-61
2022/01/19 08:16:21;;;;;;;21.20;16.67;;;;;;;;;;5043797;28;20175;-63
2022/01/19 08:18:47;;;;;;;20.87;16.60;;;;;;;;;;5056730;28;20283;-61
2022/01/19 08:21:13;;;;;;;21.67;16.73;;;;;;;;;;5034939;28;20245;-61
2022/01/19 08:23:39;;;;;;;21.07;15.60;;;;;;;;;;5034781;28;20182;-61
2022/01/19 08:26:05;;;;;;;24.23;17.30;;;;;;;;;;5035560;28;20175;-61
2022/01/19 08:28:31;;;;;;;20.93;17.40;;;;;;;;;;5050550;28;20686;-62
2022/01/19 08:30:57;;;;;;;23.10;16.87;;;;;;;;;;5036553;28;20218;-61
2022/01/19 08:33:23;;;;;;;20.10;16.00;;;;;;;;;;5045147;28;20235;-61
2022/01/19 08:35:51;;;;;;;20.23;14.80;;;;;;;;;;5047026;28;20175;-61
2022/01/19 08:38:17;;;;;;;21.07;16.17;;;;;;;;;;5044622;28;20239;-61
2022/01/19 08:40:43;;;;;;;20.97;16.67;;;;;;;;;;5063716;28;20180;-61
2022/01/19 08:43:09;;;;;;;21.93;16.33;;;;;;;;;;5035571;28;20241;-61
2022/01/19 08:45:35;;;;;;;22.20;16.27;;;;;;;;;;5035499;28;20179;-61
2022/01/19 08:48:01;;;;;;;19.13;15.83;;;;;;;;;;5034271;28;20183;-61
2022/01/19 08:50:28;;;;;;;19.90;15.67;;;;;;;;;;5033882;28;20578;-61
2022/01/19 08:52:55;;;;;;;19.20;15.40;;;;;;;;;;5034308;28;20214;-61
2022/01/19 08:55:21;;;;;;;16.63;13.97;;;;;;;;;;5034597;28;20203;-61
2022/01/19 08:57:50;;;;;;;19.70;16.00;;;;;;;;;;5049275;28;20206;-61
2022/01/19 09:00:17;;;;;;;20.40;14.63;;;;;;;;;;5033629;28;20179;-61
2022/01/19 09:02:43;;;;;;;20.10;16.40;;;;;;;;;;5035396;28;20578;-61
2022/01/19 09:05:10;;;;;;;24.23;17.97;;;;;;;;;;5049471;28;20179;-62
2022/01/19 09:07:36;;;;;;;19.20;15.43;;;;;;;;;;5035256;28;20191;-61
2022/01/19 09:10:03;;;;;;;20.93;16.33;;;;;;;;;;5049661;28;20647;-61
2022/01/19 09:12:29;;;;;;;19.43;16.97;;;;;;;;;;5034101;28;20203;-61
2022/01/19 09:14:55;;;;;;;21.43;15.83;;;;;;;;;;5034096;28;20211;-61
2022/01/19 09:17:21;;;;;;;20.20;16.13;;;;;;;;;;5034005;28;20178;-61
2022/01/19 09:19:47;;;;;;;21.77;15.90;;;;;;;;;;5049146;28;20256;-61
2022/01/19 09:22:13;;;;;;;19.33;16.17;;;;;;;;;;5033748;28;20202;-61
2022/01/19 09:24:40;;;;;;;18.07;14.00;;;;;;;;;;5033597;28;20175;-61
2022/01/19 09:27:08;;;;;;;19.00;15.87;;;;;;;;;;5033570;28;20191;-61
2022/01/19 09:29:37;;;;;;;19.33;16.03;;;;;;;;;;5034126;28;20179;-61
2022/01/19 09:32:07;;;;;;;18.30;14.87;;;;;;;;;;5050461;28;20211;-61
2022/01/19 09:34:33;;;;;;;18.37;14.07;;;;;;;;;;5037347;28;20199;-62
2022/01/19 09:36:59;;;;;;;17.77;14.50;;;;;;;;;;5037484;28;20224;-61
2022/01/19 09:39:26;;;;;;;18.87;14.73;;;;;;;;;;5037280;28;20266;-61
2022/01/19 09:41:52;;;;;;;15.33;13.37;;;;;;;;;;5052409;28;20222;-61
2022/01/19 09:44:19;;;;;;;19.63;14.10;;;;;;;;;;5053341;28;20220;-62
2022/01/19 09:46:45;;;;;;;18.87;15.07;;;;;;;;;;5052742;28;20266;-61
2022/01/19 09:49:12;;;;;;;20.93;16.13;;;;;;;;;;5037381;28;20269;-61
2022/01/19 09:51:42;;;;;;;19.10;15.27;;;;;;;;;;5052750;28;20241;-61
2022/01/19 09:54:08;;;;;;;18.20;15.70;;;;;;;;;;5037705;28;20234;-61
2022/01/19 09:56:34;;;;;;;24.50;16.20;;;;;;;;;;5052796;22;20234;-65
2022/01/19 09:59:00;;;;;;;17.87;13.40;;;;;;;;;;5036526;28;20171;-66
2022/01/19 10:01:26;;;;;;;19.20;15.47;;;;;;;;;;5051824;28;20179;-66
2022/01/19 10:03:53;;;;;;;20.80;15.87;;;;;;;;;;5036547;28;20182;-66
2022/01/19 10:06:19;;;;;;;20.20;15.13;;;;;;;;;;5036250;28;20198;-66
2022/01/19 10:08:46;;;;;;;18.20;14.87;;;;;;;;;;5036183;28;20214;-66
2022/01/19 10:11:20;;;;;;;21.03;16.00;;;;;;;;;;5036237;28;20175;-66
2022/01/19 10:19:20;;;;;;;26.53;18.97;;;;;;;;;;5036603;28;20222;-66
2022/01/19 10:21:56;;;;;;;23.63;17.17;;;;;;;;;;5036182;28;20254;-66
2022/01/19 10:24:34;;;;;;;17.50;15.13;;;;;;;;;;5036129;28;20204;-66
2022/01/19 10:27:19;;;;;;;16.80;13.13;;;;;;;;;;5034715;28;20747;-66
2022/01/19 10:29:45;;;;;;;22.53;16.63;;;;;;;;;;5035095;28;20270;-66
2022/01/19 10:32:11;;;;;;;16.67;12.50;;;;;;;;;;5034906;28;20622;-66
2022/01/19 10:34:37;;;;;;;19.50;15.07;;;;;;;;;;5036067;28;20239;-66
2022/01/19 10:37:05;;;;;;;20.43;16.23;;;;;;;;;;5035793;28;20203;-66
2022/01/19 10:39:48;;;;;;;20.67;16.93;;;;;;;;;;5036293;28;20539;-66
2022/01/19 10:42:18;;;;;;;24.90;18.27;;;;;;;;;;5034046;28;20185;-66
2022/01/19 10:44:45;;;;;;;27.00;19.60;;;;;;;;;;5034524;28;20179;-66
2022/01/19 10:47:11;;;;;;;26.03;18.13;;;;;;;;;;5035932;28;20203;-66
2022/01/19 10:49:52;;;;;;;20.50;15.93;;;;;;;;;;5041319;28;20539;-66
2022/01/19 10:52:39;;;;;;;24.70;16.67;;;;;;;;;;5041923;28;20181;-66
2022/01/19 10:55:07;;;;;;;21.97;18.63;;;;;;;;;;5035781;28;20290;-66
2022/01/19 10:57:34;;;;;;;20.73;16.53;;;;;;;;;;5034229;28;20170;-66
2022/01/19 11:00:12;;;;;;;19.60;15.30;;;;;;;;;;5035843;28;20179;-66
2022/01/19 11:02:39;;;;;;;28.03;18.53;;;;;;;;;;5035336;28;20263;-66
2022/01/19 11:05:05;;;;;;;25.77;18.27;;;;;;;;;;5035444;28;20199;-66
2022/01/19 11:07:31;;;;;;;22.77;17.60;;;;;;;;;;5040165;28;20175;-66
2022/01/19 11:10:07;;;;;;;22.83;17.63;;;;;;;;;;5041805;28;20242;-65
2022/01/19 11:12:39;;;;;;;23.97;17.60;;;;;;;;;;5042126;28;20159;-66
2022/01/19 11:15:05;;;;;;;21.23;16.33;;;;;;;;;;5039261;28;20712;-66
2022/01/19 11:17:31;;;;;;;20.60;17.07;;;;;;;;;;5034663;28;20643;-66
2022/01/19 11:19:57;;;;;;;31.77;20.33;;;;;;;;;;5035532;28;20186;-67
2022/01/19 11:22:34;;;;;;;26.03;19.43;;;;;;;;;;5035507;28;20177;-66
2022/01/19 11:25:18;;;;;;;22.10;16.63;;;;;;;;;;5034094;28;20196;-67
2022/01/19 11:27:46;;;;;;;37.77;26.73;;;;;;;;;;5035353;28;20193;-66
2022/01/19 11:30:12;;;;;;;29.63;21.40;;;;;;;;;;5035815;28;20175;-66
2022/01/19 11:32:38;;;;;;;23.63;17.73;;;;;;;;;;5035437;28;20189;-66
2022/01/19 11:35:05;;;;;;;20.27;16.63;;;;;;;;;;5035293;28;20175;-66
2022/01/19 11:37:39;;;;;;;22.67;18.27;;;;;;;;;;5034864;28;20179;-66
2022/01/19 11:40:08;;;;;;;20.57;17.33;;;;;;;;;;5034598;28;20175;-66
2022/01/19 11:42:34;;;;;;;25.67;17.90;;;;;;;;;;5033326;28;20553;-66
2022/01/19 11:45:00;;;;;;;22.93;15.97;;;;;;;;;;5034266;28;20643;-66
2022/01/19 11:47:29;;;;;;;20.40;16.00;;;;;;;;;;5034593;28;20183;-66
2022/01/19 11:49:58;;;;;;;21.50;17.33;;;;;;;;;;5034104;28;20171;-66
2022/01/19 11:52:30;;;;;;;23.07;16.90;;;;;;;;;;5032840;28;20186;-66
2022/01/19 11:55:13;;;;;;;22.07;16.43;;;;;;;;;;5033391;28;20623;-67
2022/01/19 11:57:40;;;;;;;22.33;17.87;;;;;;;;;;5034209;28;20171;-66
2022/01/19 12:00:06;;;;;;;19.83;16.60;;;;;;;;;;5034124;28;20641;-66
2022/01/19 12:02:36;;;;;;;25.60;18.87;;;;;;;;;;5033978;28;20229;-66
2022/01/19 12:05:14;;;;;;;25.67;18.77;;;;;;;;;;5034188;28;20175;-66
2022/01/19 12:07:57;;;;;;;27.73;20.57;;;;;;;;;;5032743;28;20183;-68
2022/01/19 12:10:46;;;;;;;22.77;17.40;;;;;;;;;;5034232;28;20179;-66
2022/01/19 12:16:20;;;;;;;25.23;18.40;;;;;;;;;;5034662;28;20198;-66
2022/01/19 12:18:48;;;;;;;24.53;17.70;;;;;;;;;;5034008;28;20502;-66
2022/01/19 12:21:29;;;;;;;26.03;17.80;;;;;;;;;;5032408;28;20556;-66
2022/01/19 12:23:56;;;;;;;24.47;18.10;;;;;;;;;;5033889;28;20406;-66
2022/01/19 12:26:22;;;;;;;23.73;17.53;;;;;;;;;;5032476;28;20226;-64
2022/01/19 12:28:49;;;;;;;23.77;17.67;;;;;;;;;;5032659;28;20237;-66
2022/01/19 12:31:24;;;;;;;23.10;17.80;;;;;;;;;;5033755;28;20189;-66
2022/01/19 12:34:03;;;;;;;23.63;17.50;;;;;;;;;;5033608;28;20222;-66
2022/01/19 12:36:44;;;;;;;24.57;17.63;;;;;;;;;;5033550;28;20269;-65
2022/01/19 12:39:25;;;;;;;21.63;16.43;;;;;;;;;;5032496;28;20179;-66
2022/01/19 12:41:54;;;;;;;24.53;16.60;;;;;;;;;;5032381;28;20175;-66
2022/01/19 12:44:40;;;;;;;25.77;18.30;;;;;;;;;;5033517;28;20657;-66
2022/01/19 12:47:26;;;;;;;22.03;16.87;;;;;;;;;;5031804;28;20666;-66
2022/01/19 12:49:52;;;;;;;23.40;17.73;;;;;;;;;;5032067;28;20247;-66
2022/01/19 12:52:19;;;;;;;22.67;18.10;;;;;;;;;;5033338;28;20643;-66
2022/01/19 12:54:45;;;;;;;23.03;18.73;;;;;;;;;;5032050;28;20215;-66
2022/01/19 12:57:15;;;;;;;23.57;18.10;;;;;;;;;;5033295;28;20210;-66
2022/01/19 12:59:42;;;;;;;24.93;20.03;;;;;;;;;;5033343;28;20179;-66
2022/01/19 13:02:08;;;;;;;21.17;16.83;;;;;;;;;;5031988;28;20266;-66
2022/01/19 13:04:35;;;;;;;22.47;17.60;;;;;;;;;;5032107;28;20191;-66
2022/01/19 13:07:16;;;;;;;20.13;16.33;;;;;;;;;;5035093;28;20608;-66
2022/01/19 13:10:06;;;;;;;27.63;21.10;;;;;;;;;;5037370;28;20182;-66
2022/01/19 13:12:40;;;;;;;26.43;17.47;;;;;;;;;;5037024;28;20164;-66
2022/01/19 13:15:06;;;;;;;24.40;18.17;;;;;;;;;;5037043;28;20167;-66
2022/01/19 13:17:42;;;;;;;23.13;16.97;;;;;;;;;;5037161;28;20182;-66
2022/01/19 13:20:10;;;;;;;22.10;17.37;;;;;;;;;;5037059;28;20179;-66
2022/01/19 13:22:52;;;;;;;25.43;18.30;;;;;;;;;;5036912;28;20167;-66
2022/01/19 13:25:18;;;;;;;20.47;17.30;;;;;;;;;;5036841;28;20191;-66
2022/01/19 13:27:45;;;;;;;22.83;17.70;;;;;;;;;;5036803;28;20254;-68
2022/01/19 13:30:12;;;;;;;24.27;18.30;;;;;;;;;;5037058;28;20256;-66
2022/01/19 13:32:39;;;;;;;22.37;18.37;;;;;;;;;;5037193;28;20196;-66
2022/01/19 13:35:06;;;;;;;22.97;17.13;;;;;;;;;;5036687;28;20183;-66
2022/01/19 13:37:45;;;;;;;26.03;18.10;;;;;;;;;;5037107;28;20182;-66
2022/01/19 13:40:13;;;;;;;24.80;18.43;;;;;;;;;;5035859;28;20631;-66
2022/01/19 13:42:41;;;;;;;27.23;20.20;;;;;;;;;;5037001;28;20262;-66
2022/01/19 13:45:35;;;;;;;26.03;19.53;;;;;;;;;;5037390;28;20774;-66
2022/01/19 13:50:39;;;;;;;29.67;20.27;;;;;;;;;;5041650;28;20163;-66
2022/01/19 13:53:05;;;;;;;26.23;19.80;;;;;;;;;;5036047;28;20559;-66
2022/01/19 13:55:32;;;;;;;25.27;19.23;;;;;;;;;;5035494;28;20663;-66
2022/01/19 13:58:24;;;;;;;28.80;20.93;;;;;;;;;;5035240;28;20207;-67
2022/01/19 14:00:51;;;;;;;23.30;18.83;;;;;;;;;;5031628;28;20252;-66
2022/01/19 14:03:18;;;;;;;29.20;20.50;;;;;;;;;;5035247;28;20187;-66
2022/01/19 14:05:46;;;;;;;29.30;22.43;;;;;;;;;;5036663;28;20204;-66
2022/01/19 14:08:13;;;;;;;33.30;22.30;;;;;;;;;;5036618;28;20218;-66
2022/01/19 14:10:46;;;;;;;35.27;20.77;;;;;;;;;;5036400;28;20182;-66
2022/01/19 14:13:31;;;;;;;21.13;14.93;;;;;;;;;;5036343;28;20195;-66
2022/01/19 14:15:58;;;;;;;27.60;19.27;;;;;;;;;;5036450;28;20226;-66
2022/01/19 14:18:24;;;;;;;26.07;17.83;;;;;;;;;;5035776;28;20253;-66
2022/01/19 14:21:06;;;;;;;26.23;20.80;;;;;;;;;;5036706;28;20652;-66
2022/01/19 14:23:32;;;;;;;28.20;20.17;;;;;;;;;;5036227;28;20186;-66
2022/01/19 14:26:05;;;;;;;30.67;21.03;;;;;;;;;;5036414;28;20195;-66
2022/01/19 14:28:33;;;;;;;29.73;21.67;;;;;;;;;;5035032;28;20183;-66
2022/01/19 14:31:03;;;;;;;31.83;23.30;;;;;;;;;;5036200;28;20171;-66
2022/01/19 14:33:29;;;;;;;34.07;23.17;;;;;;;;;;5036366;28;20202;-67
2022/01/19 14:35:57;;;;;;;34.87;24.63;;;;;;;;;;5035749;28;20205;-66
2022/01/19 14:38:26;;;;;;;35.20;23.50;;;;;;;;;;5036186;28;20544;-66
2022/01/19 14:41:01;;;;;;;43.07;28.93;;;;;;;;;;5035943;28;20203;-66
2022/01/19 14:43:37;;;;;;;42.80;29.50;;;;;;;;;;5036178;28;20257;-66
2022/01/19 14:46:06;;;;;;;39.97;26.07;;;;;;;;;;5035745;28;20191;-66
2022/01/19 14:48:46;;;;;;;35.37;25.20;;;;;;;;;;5034376;28;20179;-66
2022/01/19 14:51:16;;;;;;;36.53;25.93;;;;;;;;;;5035896;28;20207;-66
2022/01/19 14:53:42;;;;;;;41.20;28.40;;;;;;;;;;5034391;28;20249;-66
2022/01/19 14:56:08;;;;;;;39.30;26.33;;;;;;;;;;5034634;28;20449;-66
2022/01/19 14:58:34;;;;;;;37.33;27.37;;;;;;;;;;5034502;28;20217;-66
2022/01/19 15:01:00;;;;;;;40.53;27.70;;;;;;;;;;5035923;28;20179;-66
2022/01/19 15:03:26;;;;;;;40.00;27.90;;;;;;;;;;5034317;28;20183;-66
2022/01/19 15:05:52;;;;;;;41.60;26.63;;;;;;;;;;5035679;28;20735;-66
2022/01/19 15:08:18;;;;;;;40.03;27.47;;;;;;;;;;5035724;28;20207;-65
2022/01/19 15:10:44;;;;;;;48.53;30.30;;;;;;;;;;5034611;28;20647;-66
2022/01/19 15:13:10;;;;;;;43.07;29.03;;;;;;;;;;5037206;28;20237;-66
2022/01/19 15:15:37;;;;;;;45.70;29.53;;;;;;;;;;5042661;28;20197;-66
2022/01/19 15:18:05;;;;;;;52.10;31.23;;;;;;;;;;5039297;28;20309;-66
2022/01/19 15:20:32;;;;;;;43.63;29.03;;;;;;;;;;5040092;28;20424;-66
2022/01/19 15:23:02;;;;;;;51.93;32.47;;;;;;;;;;5034455;28;20418;-66
2022/01/19 15:25:28;;;;;;;45.37;28.83;;;;;;;;;;5035295;28;20457;-66
2022/01/19 15:27:54;;;;;;;50.80;30.97;;;;;;;;;;5034989;28;20562;-66
2022/01/19 15:30:21;;;;;;;51.87;33.07;;;;;;;;;;5034088;28;20179;-65
2022/01/19 15:32:47;;;;;;;48.37;30.47;;;;;;;;;;5034835;28;20214;-65
2022/01/19 15:35:13;;;;;;;43.60;29.07;;;;;;;;;;5034774;28;20462;-65
2022/01/19 15:37:39;;;;;;;46.67;32.33;;;;;;;;;;5034889;28;20172;-65
2022/01/19 15:40:12;;;;;;;50.93;31.70;;;;;;;;;;5033642;28;20190;-65
2022/01/19 15:42:38;;;;;;;50.03;33.43;;;;;;;;;;5035113;28;20391;-65
2022/01/19 15:45:04;;;;;;;61.00;37.30;;;;;;;;;;5034575;28;20171;-65
2022/01/19 15:47:30;;;;;;;53.60;33.10;;;;;;;;;;5033614;28;20191;-65
2022/01/19 15:50:02;;;;;;;55.13;35.42;;;;;;;;;;5093825;27;1199869;-66